createdAt,value
2022-09-22T00:01:06.141Z,99.90
2022-09-22T00:03:37.080Z,99.90
2022-09-22T00:06:08.032Z,99.90
2022-09-22T00:08:36.965Z,99.90
2022-09-22T00:11:19.363Z,99.90
2022-09-22T00:13:51.058Z,99.90
2022-09-22T00:16:23.727Z,99.90
2022-09-22T00:18:50.608Z,99.90
2022-09-22T00:21:20.588Z,99.90
2022-09-22T00:23:48.574Z,99.90
2022-09-22T00:26:17.762Z,99.90
2022-09-22T00:28:47.215Z,99.90
2022-09-22T00:31:17.729Z,99.90
2022-09-22T00:33:46.417Z,99.90
2022-09-22T00:36:18.030Z,99.90
2022-09-22T00:38:45.004Z,99.90
2022-09-22T00:41:23.884Z,99.90
2022-09-22T00:44:12.414Z,99.90
2022-09-22T00:46:41.006Z,99.90
2022-09-22T00:49:09.461Z,99.90
2022-09-22T00:51:39.124Z,99.90
2022-09-22T00:54:09.460Z,99.90
2022-09-22T00:56:44.432Z,99.90
2022-09-22T00:59:15.999Z,99.90
2022-09-22T01:01:42.997Z,99.90
2022-09-22T01:04:09.851Z,99.90
2022-09-22T01:06:39.169Z,99.90
2022-09-22T01:09:06.985Z,99.90
2022-09-22T01:11:34.768Z,99.90
2022-09-22T01:14:07.777Z,99.90
2022-09-22T01:17:02.495Z,99.90
2022-09-22T01:19:32.196Z,99.90
2022-09-22T01:22:13.479Z,99.90
2022-09-22T01:24:58.648Z,99.90
2022-09-22T01:28:06.298Z,99.90
2022-09-22T01:30:36.818Z,99.90
2022-09-22T01:33:39.371Z,99.90
2022-09-22T01:36:18.713Z,99.90
2022-09-22T01:39:03.604Z,99.90
2022-09-22T01:41:51.659Z,99.90
2022-09-22T01:44:32.721Z,99.90
2022-09-22T01:47:43.160Z,99.90
2022-09-22T01:50:27.782Z,99.90
2022-09-22T01:52:58.015Z,99.90
2022-09-22T01:55:28.872Z,99.90
2022-09-22T01:58:00.514Z,99.90
2022-09-22T02:00:28.039Z,99.90
2022-09-22T02:03:07.121Z,99.90
2022-09-22T02:05:49.462Z,99.90
2022-09-22T02:08:30.237Z,99.90
2022-09-22T02:11:00.737Z,99.90
2022-09-22T02:13:27.608Z,99.90
2022-09-22T02:16:00.360Z,99.90
2022-09-22T02:18:39.962Z,99.90
2022-09-22T02:21:06.832Z,99.90
2022-09-22T02:23:34.193Z,99.90
2022-09-22T02:26:02.893Z,99.90
2022-09-22T02:28:32.660Z,99.90
2022-09-22T02:31:19.512Z,99.90
2022-09-22T02:33:46.964Z,99.90
2022-09-22T02:36:55.183Z,99.90
2022-09-22T02:39:56.987Z,99.90
2022-09-22T02:42:38.508Z,99.90
2022-09-22T02:45:29.716Z,99.90
2022-09-22T02:48:04.450Z,99.90
2022-09-22T02:50:33.632Z,99.90
2022-09-22T02:53:12.263Z,99.90
2022-09-22T02:55:40.254Z,99.90
2022-09-22T02:58:07.201Z,99.90
2022-09-22T03:00:34.462Z,99.90
2022-09-22T03:03:01.369Z,99.90
2022-09-22T03:05:28.215Z,99.90
2022-09-22T03:07:55.145Z,99.90
2022-09-22T03:10:22.135Z,99.90
2022-09-22T03:13:14.509Z,99.90
2022-09-22T03:15:35.991Z,99.90
2022-09-22T03:18:02.912Z,99.90
2022-09-22T03:20:29.958Z,99.90
2022-09-22T03:22:56.777Z,99.90
2022-09-22T03:25:23.632Z,99.90
2022-09-22T03:27:50.559Z,99.90
2022-09-22T03:30:17.422Z,99.90
2022-09-22T03:32:44.271Z,99.90
2022-09-22T03:35:11.237Z,99.90
2022-09-22T03:37:38.162Z,99.90
2022-09-22T03:40:05.722Z,99.90
2022-09-22T03:42:34.878Z,99.90
2022-09-22T03:45:03.170Z,99.90
2022-09-22T03:47:30.573Z,99.90
2022-09-22T03:49:57.467Z,99.90
2022-09-22T03:52:24.437Z,99.90
2022-09-22T03:54:52.243Z,99.90
2022-09-22T03:57:19.110Z,99.90
2022-09-22T03:59:46.049Z,99.90
2022-09-22T04:02:14.200Z,99.90
2022-09-22T04:04:41.361Z,99.90
2022-09-22T04:07:08.619Z,99.90
2022-09-22T04:09:35.480Z,99.90
2022-09-22T04:12:03.073Z,99.90
2022-09-22T04:14:30.059Z,99.90
2022-09-22T04:16:56.978Z,99.90
2022-09-22T04:19:23.859Z,99.90
2022-09-22T04:21:56.176Z,99.90
2022-09-22T04:24:24.639Z,99.90
2022-09-22T04:27:17.989Z,99.90
2022-09-22T04:29:38.892Z,99.90
2022-09-22T04:32:06.072Z,99.90
2022-09-22T04:34:33.052Z,99.90
2022-09-22T04:36:59.886Z,99.90
2022-09-22T04:39:28.754Z,99.90
2022-09-22T04:41:55.992Z,99.90
2022-09-22T04:44:23.170Z,99.90
2022-09-22T04:46:50.476Z,99.90
2022-09-22T04:49:18.652Z,99.90
2022-09-22T04:51:45.585Z,99.90
2022-09-22T04:54:14.926Z,99.90
2022-09-22T04:56:43.101Z,99.90
2022-09-22T04:59:10.367Z,99.90
2022-09-22T05:01:37.426Z,99.90
2022-09-22T05:04:04.330Z,99.90
2022-09-22T05:06:31.254Z,99.90
2022-09-22T05:08:58.671Z,99.90
2022-09-22T05:11:25.858Z,99.90
2022-09-22T05:13:52.696Z,99.90
2022-09-22T05:16:20.092Z,99.90
2022-09-22T05:18:50.206Z,99.90
2022-09-22T05:21:18.878Z,99.90
2022-09-22T05:23:46.586Z,99.90
2022-09-22T05:26:14.058Z,99.90
2022-09-22T05:28:41.063Z,99.90
2022-09-22T05:31:08.353Z,99.90
2022-09-22T05:33:35.278Z,99.90
2022-09-22T05:36:02.693Z,99.90
2022-09-22T05:38:29.605Z,99.90
2022-09-22T05:40:56.507Z,99.90
2022-09-22T05:43:23.412Z,99.90
2022-09-22T05:45:50.327Z,99.90
2022-09-22T05:48:17.213Z,99.90
2022-09-22T05:50:45.330Z,99.90
2022-09-22T05:53:12.457Z,99.90
2022-09-22T05:55:40.749Z,99.90
2022-09-22T05:58:10.039Z,99.90
2022-09-22T06:00:37.046Z,99.90
2022-09-22T06:03:04.854Z,99.90
2022-09-22T06:05:32.205Z,99.90
2022-09-22T06:08:06.504Z,99.90
2022-09-22T06:10:36.044Z,99.90
2022-09-22T06:13:08.211Z,99.90
2022-09-22T06:15:36.304Z,99.90
2022-09-22T06:18:07.188Z,99.90
2022-09-22T06:20:35.005Z,99.90
2022-09-22T06:23:02.468Z,99.90
2022-09-22T06:25:29.668Z,99.90
2022-09-22T06:28:05.702Z,99.90
2022-09-22T06:30:34.634Z,99.90
2022-09-22T06:33:01.549Z,99.90
2022-09-22T06:35:36.615Z,99.90
2022-09-22T06:38:07.854Z,99.90
2022-09-22T06:40:38.189Z,99.90
2022-09-22T06:43:12.038Z,99.90
2022-09-22T06:45:39.819Z,99.90
2022-09-22T06:48:10.064Z,99.90
2022-09-22T06:50:38.855Z,99.90
2022-09-22T06:53:07.719Z,99.90
2022-09-22T06:55:35.871Z,99.90
2022-09-22T06:58:03.158Z,99.90
2022-09-22T07:00:33.211Z,99.90
2022-09-22T07:03:09.075Z,99.90
2022-09-22T07:05:37.320Z,99.90
2022-09-22T07:08:05.051Z,99.90
2022-09-22T07:10:37.851Z,99.90
2022-09-22T07:13:10.748Z,99.90
2022-09-22T07:15:37.626Z,99.90
2022-09-22T07:18:04.644Z,99.90
2022-09-22T07:20:35.829Z,99.90
2022-09-22T07:23:02.933Z,99.90
2022-09-22T07:25:33.580Z,99.90
2022-09-22T07:28:05.073Z,99.90
2022-09-22T07:30:34.174Z,99.90
2022-09-22T07:33:01.815Z,99.90
2022-09-22T07:35:28.842Z,99.90
2022-09-22T07:38:03.363Z,99.90
2022-09-22T07:40:30.714Z,99.90
2022-09-22T07:42:57.601Z,99.90
2022-09-22T07:45:24.493Z,99.90
2022-09-22T07:48:09.943Z,99.90
2022-09-22T07:50:36.865Z,99.90
2022-09-22T07:53:04.292Z,99.90
2022-09-22T07:55:33.399Z,99.90
2022-09-22T07:58:00.944Z,99.90
2022-09-22T08:00:33.296Z,99.90
2022-09-22T08:03:01.340Z,99.90
2022-09-22T08:05:29.470Z,99.90
2022-09-22T08:08:00.892Z,99.90
2022-09-22T08:10:27.833Z,99.90
2022-09-22T08:12:57.889Z,99.90
2022-09-22T08:15:27.302Z,99.90
2022-09-22T08:18:02.485Z,99.90
2022-09-22T08:20:30.050Z,99.90
2022-09-22T08:23:03.195Z,99.90
2022-09-22T08:25:30.767Z,99.90
2022-09-22T08:28:00.318Z,99.90
2022-09-22T08:30:27.217Z,99.90
2022-09-22T08:32:54.102Z,99.90
2022-09-22T08:35:21.180Z,99.90
2022-09-22T08:37:50.755Z,99.90
2022-09-22T08:40:23.772Z,99.90
2022-09-22T08:42:54.352Z,99.90
2022-09-22T08:45:39.460Z,99.90
2022-09-22T08:48:39.383Z,99.90
2022-09-22T08:51:31.374Z,99.90
2022-09-22T08:54:03.099Z,99.90
2022-09-22T08:56:41.658Z,99.90
2022-09-22T08:59:23.433Z,99.90
2022-09-22T09:02:32.762Z,99.90
2022-09-22T09:05:19.969Z,99.90
2022-09-22T09:07:58.747Z,99.90
2022-09-22T09:11:06.926Z,99.90
2022-09-22T09:13:42.285Z,99.90
2022-09-22T09:16:37.154Z,99.90
2022-09-22T09:19:20.232Z,99.90
2022-09-22T09:21:52.956Z,99.90
2022-09-22T09:27:28.887Z,99.90
2022-09-22T09:30:12.555Z,99.90
2022-09-22T09:33:01.988Z,99.90
2022-09-22T09:35:44.257Z,99.90
2022-09-22T09:38:41.452Z,99.90
2022-09-22T09:41:19.127Z,99.90
2022-09-22T09:43:46.143Z,99.90
2022-09-22T09:46:48.985Z,99.90
2022-09-22T09:49:24.315Z,99.90
2022-09-22T09:52:00.602Z,99.90
2022-09-22T09:54:28.661Z,99.90
2022-09-22T09:57:05.199Z,99.90
2022-09-22T10:00:11.879Z,99.90
2022-09-22T10:06:11.201Z,99.90
2022-09-22T10:08:47.858Z,99.90
2022-09-22T10:11:18.104Z,99.90
2022-09-22T10:13:55.497Z,99.90
2022-09-22T10:16:52.966Z,99.90
2022-09-22T10:19:27.685Z,99.90
2022-09-22T10:25:52.129Z,99.90
2022-09-22T10:31:20.380Z,99.90
2022-09-22T10:33:55.908Z,99.50
2022-09-22T10:37:01.950Z,99.90
2022-09-22T10:59:29.138Z,97.90
2022-09-22T11:02:10.541Z,98.10
2022-09-22T11:05:39.530Z,98.40
2022-09-22T11:08:29.769Z,98.60
2022-09-22T11:11:23.092Z,98.30
2022-09-22T11:14:01.345Z,98.20
2022-09-22T11:16:34.431Z,98.40
2022-09-22T11:19:01.237Z,98.30
2022-09-22T11:21:47.081Z,98.80
2022-09-22T11:24:37.719Z,97.40
2022-09-22T11:27:07.200Z,97.60
2022-09-22T11:29:53.342Z,97.70
2022-09-22T11:32:54.161Z,98.30
2022-09-22T11:35:39.821Z,97.40
2022-09-22T11:38:37.759Z,97.50
2022-09-22T11:41:27.682Z,97.40
2022-09-22T11:44:15.642Z,97.70
2022-09-22T11:47:17.548Z,97.50
2022-09-22T11:49:58.726Z,97.10
2022-09-22T11:53:00.698Z,97.10
2022-09-22T11:56:03.049Z,97.60
2022-09-22T11:58:33.310Z,96.80
2022-09-22T12:01:13.103Z,97.40
2022-09-22T12:04:09.066Z,97.70
2022-09-22T12:06:44.339Z,97.00
2022-09-22T12:09:20.575Z,97.30
2022-09-22T12:11:47.610Z,96.80
2022-09-22T12:14:15.542Z,96.70
2022-09-22T12:17:23.477Z,96.20
2022-09-22T12:20:08.622Z,96.30
2022-09-22T12:22:54.784Z,97.00
2022-09-22T12:25:52.015Z,97.50
2022-09-22T12:28:24.328Z,96.90
2022-09-22T12:31:13.032Z,96.90
2022-09-22T12:33:47.472Z,97.00
2022-09-22T12:36:15.862Z,97.40
2022-09-22T12:38:43.813Z,97.20
2022-09-22T12:41:18.614Z,97.50
2022-09-22T12:43:47.397Z,98.10
2022-09-22T12:46:23.720Z,97.90
2022-09-22T12:48:50.983Z,97.60
2022-09-22T12:51:31.266Z,97.40
2022-09-22T12:54:23.028Z,97.20
2022-09-22T12:57:09.190Z,96.10
2022-09-22T12:59:35.947Z,96.70
2022-09-22T13:02:14.917Z,95.40
2022-09-22T13:05:01.181Z,94.90
2022-09-22T13:07:36.310Z,95.90
2022-09-22T13:10:24.691Z,94.80
2022-09-22T13:13:19.930Z,95.00
2022-09-22T13:15:49.586Z,94.90
2022-09-22T13:18:46.146Z,94.90
2022-09-22T13:21:13.244Z,95.40
2022-09-22T13:23:57.698Z,95.60
2022-09-22T13:26:27.631Z,95.70
2022-09-22T13:29:13.430Z,96.10
2022-09-22T13:31:57.219Z,95.30
2022-09-22T13:34:29.153Z,94.30
2022-09-22T13:37:27.473Z,93.70
2022-09-22T13:39:54.701Z,94.30
2022-09-22T13:42:31.355Z,93.30
2022-09-22T13:45:02.858Z,94.60
2022-09-22T13:47:30.668Z,94.30
2022-09-22T13:50:06.483Z,94.80
2022-09-22T13:52:39.006Z,94.50
2022-09-22T13:55:28.731Z,94.20
2022-09-22T13:57:57.678Z,93.20
2022-09-22T14:00:28.124Z,92.20
2022-09-22T14:03:01.529Z,92.40
2022-09-22T14:05:32.420Z,92.60
2022-09-22T14:08:20.420Z,92.10
2022-09-22T14:10:47.886Z,93.70
2022-09-22T14:13:36.576Z,92.30
2022-09-22T14:16:12.658Z,90.90
2022-09-22T14:18:46.574Z,91.60
2022-09-22T14:21:13.709Z,92.30
2022-09-22T14:23:47.315Z,90.70
2022-09-22T14:26:44.483Z,91.30
2022-09-22T14:29:24.328Z,91.80
2022-09-22T14:32:18.865Z,92.50
2022-09-22T14:34:52.027Z,92.20
2022-09-22T14:37:24.875Z,91.50
2022-09-22T14:39:53.866Z,91.60
2022-09-22T14:42:27.535Z,91.50
2022-09-22T14:45:08.492Z,90.40
2022-09-22T14:47:40.858Z,91.10
2022-09-22T14:50:25.915Z,89.60
2022-09-22T14:53:13.964Z,91.50
2022-09-22T14:55:47.456Z,91.20
2022-09-22T14:58:14.200Z,90.40
2022-09-22T15:01:19.854Z,90.30
2022-09-22T15:04:02.818Z,90.20
2022-09-22T15:06:37.747Z,90.50
2022-09-22T15:09:05.238Z,90.90
2022-09-22T15:11:51.054Z,90.60
2022-09-22T15:14:48.691Z,90.80
2022-09-22T15:17:57.554Z,91.20
2022-09-22T15:20:31.597Z,91.30
2022-09-22T15:22:58.838Z,90.90
2022-09-22T15:25:25.697Z,91.20
2022-09-22T15:27:53.511Z,91.50
2022-09-22T15:30:23.556Z,91.40
2022-09-22T15:32:50.358Z,91.50
2022-09-22T15:35:18.289Z,90.70
2022-09-22T15:37:46.499Z,91.50
2022-09-22T15:40:18.594Z,92.00
2022-09-22T15:43:02.521Z,91.90
2022-09-22T15:45:33.433Z,91.90
2022-09-22T15:48:00.275Z,90.40
2022-09-22T15:50:30.683Z,89.50
2022-09-22T15:52:57.511Z,88.70
2022-09-22T15:55:24.705Z,89.00
2022-09-22T15:57:55.296Z,89.60
2022-09-22T16:00:27.533Z,90.00
2022-09-22T16:02:54.788Z,88.10
2022-09-22T16:05:22.764Z,89.70
2022-09-22T16:07:52.287Z,89.20
2022-09-22T16:10:23.612Z,87.40
2022-09-22T16:12:50.831Z,88.90
2022-09-22T16:15:17.923Z,89.90
2022-09-22T16:17:46.098Z,89.30
2022-09-22T16:20:15.742Z,88.70
2022-09-22T16:22:44.798Z,90.00
2022-09-22T16:25:12.510Z,90.90
2022-09-22T16:27:39.357Z,91.50
2022-09-22T16:30:07.061Z,92.50
2022-09-22T16:32:36.177Z,92.80
2022-09-22T16:35:03.858Z,92.70
2022-09-22T16:37:30.701Z,93.00
2022-09-22T16:39:57.529Z,93.40
2022-09-22T16:42:24.298Z,93.30
2022-09-22T16:44:51.083Z,93.80
2022-09-22T16:47:22.736Z,93.50
2022-09-22T16:49:51.302Z,93.30
2022-09-22T16:52:21.170Z,92.80
2022-09-22T16:54:47.965Z,93.30
2022-09-22T16:57:14.795Z,93.60
2022-09-22T16:59:41.682Z,94.40
2022-09-22T17:02:10.481Z,94.50
2022-09-22T17:04:37.334Z,94.70
2022-09-22T17:07:05.303Z,94.80
2022-09-22T17:09:32.257Z,95.00
2022-09-22T17:11:59.166Z,95.50
2022-09-22T17:14:27.820Z,95.60
2022-09-22T17:16:56.660Z,96.10
2022-09-22T17:19:27.842Z,96.50
2022-09-22T17:21:56.343Z,96.80
2022-09-22T17:24:25.326Z,96.80
2022-09-22T17:26:57.770Z,96.80
2022-09-22T17:29:27.482Z,97.10
2022-09-22T17:32:03.208Z,97.20
2022-09-22T17:34:32.949Z,97.30
2022-09-22T17:37:00.722Z,97.30
2022-09-22T17:39:28.827Z,97.30
2022-09-22T17:41:55.866Z,97.40
2022-09-22T17:44:24.117Z,97.30
2022-09-22T17:47:11.398Z,97.00
2022-09-22T17:49:57.670Z,96.60
2022-09-22T17:52:40.020Z,96.50
2022-09-22T17:55:18.991Z,96.80
2022-09-22T17:57:46.223Z,96.10
2022-09-22T18:00:21.591Z,96.10
2022-09-22T18:02:50.306Z,96.40
2022-09-22T18:05:20.036Z,95.90
2022-09-22T18:07:50.478Z,95.50
2022-09-22T18:10:19.897Z,95.50
2022-09-22T18:12:46.748Z,95.90
2022-09-22T18:15:13.912Z,95.90
2022-09-22T18:17:42.539Z,96.20
2022-09-22T18:20:15.126Z,96.10
2022-09-22T18:22:47.606Z,95.80
2022-09-22T18:25:15.191Z,95.60
2022-09-22T18:27:42.325Z,95.80
2022-09-22T18:30:15.341Z,95.50
2022-09-22T18:32:42.779Z,95.70
2022-09-22T18:35:09.804Z,95.70
2022-09-22T18:37:36.558Z,95.60
2022-09-22T18:40:03.715Z,95.70
2022-09-22T18:42:32.357Z,95.40
2022-09-22T18:44:59.198Z,95.70
2022-09-22T18:47:26.305Z,95.60
2022-09-22T18:49:53.180Z,94.80
2022-09-22T18:52:23.842Z,94.60
2022-09-22T18:54:56.029Z,94.50
2022-09-22T18:57:25.612Z,94.50
2022-09-22T18:59:54.028Z,94.30
2022-09-22T19:02:22.637Z,94.30
2022-09-22T19:04:51.789Z,94.30
2022-09-22T19:07:42.061Z,94.50
2022-09-22T19:10:22.042Z,94.70
2022-09-22T19:12:49.688Z,94.80
2022-09-22T19:15:19.041Z,94.90
2022-09-22T19:17:48.521Z,94.90
2022-09-22T19:20:18.328Z,94.90
2022-09-22T19:22:46.881Z,95.00
2022-09-22T19:25:14.008Z,95.00
2022-09-22T19:27:40.944Z,95.10
2022-09-22T19:30:09.630Z,95.20
2022-09-22T19:32:37.220Z,95.10
2022-09-22T19:35:05.558Z,95.20
2022-09-22T19:37:32.454Z,95.20
2022-09-22T19:39:59.503Z,95.40
2022-09-22T19:42:28.536Z,95.40
2022-09-22T19:44:55.871Z,95.30
2022-09-22T19:47:23.849Z,95.40
2022-09-22T19:49:50.830Z,95.40
2022-09-22T19:52:17.722Z,95.40
2022-09-22T19:54:44.660Z,95.40
2022-09-22T19:57:11.674Z,95.50
2022-09-22T19:59:38.655Z,95.60
2022-09-22T20:02:12.904Z,95.70
2022-09-22T20:04:40.375Z,95.70
2022-09-22T20:07:09.478Z,95.60
2022-09-22T20:09:36.605Z,95.60
2022-09-22T20:12:04.356Z,95.60
2022-09-22T20:14:32.037Z,95.60
2022-09-22T20:17:07.564Z,95.70
2022-09-22T20:19:38.500Z,95.50
2022-09-22T20:22:25.389Z,95.50
2022-09-22T20:24:54.995Z,95.50
2022-09-22T20:27:23.946Z,95.60
2022-09-22T20:29:55.068Z,95.70
2022-09-22T20:32:25.255Z,95.70
2022-09-22T20:34:54.040Z,95.50
2022-09-22T20:37:21.393Z,95.60
2022-09-22T20:39:48.598Z,95.60
2022-09-22T20:42:15.928Z,95.50
2022-09-22T20:44:44.108Z,95.60
2022-09-22T20:47:16.744Z,95.50
2022-09-22T20:49:47.996Z,95.80
2022-09-22T20:52:19.858Z,95.70
2022-09-22T20:54:47.225Z,95.70
2022-09-22T20:57:14.441Z,95.70
2022-09-22T20:59:42.583Z,95.80
2022-09-22T21:02:11.126Z,95.60
2022-09-22T21:04:38.141Z,95.90
2022-09-22T21:07:05.023Z,95.90
2022-09-22T21:09:50.421Z,96.10
2022-09-22T21:12:17.373Z,95.90
2022-09-22T21:14:45.952Z,95.90
2022-09-22T21:17:13.760Z,96.10
2022-09-22T21:19:40.954Z,96.00
2022-09-22T21:22:08.218Z,96.00
2022-09-22T21:24:35.112Z,96.10
2022-09-22T21:27:02.158Z,96.30
2022-09-22T21:29:29.843Z,96.10
2022-09-22T21:31:58.062Z,96.10
2022-09-22T21:34:25.225Z,96.00
2022-09-22T21:36:52.346Z,96.40
2022-09-22T21:39:19.242Z,96.40
2022-09-22T21:41:46.094Z,96.20
2022-09-22T21:44:13.285Z,96.30
2022-09-22T21:46:41.875Z,96.20
2022-09-22T21:49:10.014Z,96.20
2022-09-22T21:51:42.373Z,96.40
2022-09-22T21:54:15.044Z,96.30
2022-09-22T21:56:42.388Z,96.50
2022-09-22T21:59:10.741Z,96.40
2022-09-22T22:01:40.098Z,96.40
2022-09-22T22:04:08.225Z,96.50
2022-09-22T22:06:42.110Z,96.40
2022-09-22T22:09:12.133Z,96.30
2022-09-22T22:11:42.187Z,96.40
2022-09-22T22:14:12.489Z,96.20
2022-09-22T22:16:46.231Z,96.70
2022-09-22T22:19:15.655Z,96.10
2022-09-22T22:21:43.402Z,96.40
2022-09-22T22:24:19.202Z,96.30
2022-09-22T22:26:51.674Z,96.10
2022-09-22T22:29:19.878Z,96.20
2022-09-22T22:31:50.603Z,96.60
2022-09-22T22:34:19.459Z,96.30
2022-09-22T22:36:46.987Z,96.60
2022-09-22T22:39:13.913Z,95.90
2022-09-22T22:41:41.193Z,95.90
2022-09-22T22:44:08.882Z,96.30
2022-09-22T22:46:36.345Z,96.00
2022-09-22T22:49:03.375Z,95.90
2022-09-22T22:51:30.491Z,95.70
2022-09-22T22:53:57.384Z,96.50
2022-09-22T22:56:29.810Z,95.70
2022-09-22T22:58:56.985Z,96.20
2022-09-22T23:01:26.317Z,95.70
2022-09-22T23:03:58.852Z,95.70
2022-09-22T23:06:37.718Z,95.70
2022-09-22T23:09:07.133Z,96.20
2022-09-22T23:11:37.555Z,96.10
2022-09-22T23:14:07.104Z,96.30
2022-09-22T23:16:45.554Z,96.30
2022-09-22T23:19:17.860Z,96.50
2022-09-22T23:21:45.524Z,96.40
2022-09-22T23:24:17.175Z,96.50
2022-09-22T23:26:45.256Z,96.60
2022-09-22T23:29:12.256Z,96.90
2022-09-22T23:31:39.144Z,96.70
2022-09-22T23:34:06.154Z,96.60
2022-09-22T23:36:33.077Z,96.70
2022-09-22T23:39:03.586Z,97.20
2022-09-22T23:41:33.122Z,96.10
2022-09-22T23:44:02.069Z,96.10
2022-09-22T23:46:28.984Z,96.20
2022-09-22T23:48:55.957Z,96.40
2022-09-22T23:51:24.059Z,96.10
2022-09-22T23:53:51.029Z,96.00
2022-09-22T23:56:18.031Z,96.20
2022-09-22T23:58:46.505Z,96.40
